Aérodrome :
LOGIN :

S'inscrire | Disclaimer

   EN    FR    IT 

 










Légende :    VFR   VFR Marginal   IFR   IFR Intensif   IFR Très Intensif
Visi : 
Plafond : 
>= 8 km
>= 3000ft
5 à 8 km
1000 à 3000 ft
1500m à 5 km
500 à 1000 ft
800 à 1500m
200 à 500 ft
< 800m
< 200 ft
Symboles :   Orages  Brouillard  Fortes neiges  Fortes précipitations  Vent > 20 kt
SIGMETs :   Divers  Orages  Givrage  Turbulence  Onde Orograph.  Cendres Volcan.






- Altitude de l'aérodrome : 230 ft
- Code IATA : VAR


LBWN - Varna

DERNIER METAR :
  • 150800Z 26007KT 9999 SCT013 17/13 Q1016 NOSIG

METARs EXPIRÉS :
  • 150730Z 25005KT 220V300 9999 FEW013 16/13 Q1016 NOSIG
  • 150700Z VRB01KT CAVOK 16/13 Q1015 NOSIG
  • 150630Z VRB01KT 9999 FEW046 15/14 Q1015 NOSIG
  • 150600Z 00000KT 9999 FEW021 SCT045 14/13 Q1015 NOSIG
  • 150530Z VRB01KT 9999 SCT027 BKN044 14/13 Q1015 NOSIG

TAF TAF LBWN
Valide du 15 à 06h jusqu'au 16 à 06h UTC


150500Z 1506/1606 VRB04KT 8000 SCT010 OVC030
BECMG 1510/1512 08010KT 9999 SCT030
BECMG 1516/1518 VRB04KT
BECMG 1522/1524 5000 BR SCT010
TEMPO 1602/1606 0600 BCFG BKN002



MET'MAP, la Météo Aéronautique d'un coup d'oeil ! - Copyright ORBIFLY Décembre 2007 - Disclaimer

ORBIFLY MET'MAP TEAM :

Programmation & Développement : Alexandra Zaïnal
Conception & Développement : Baudouin d'Aumeries
Co-Programmation & Développement : Marc-Olivier Méhu
Soutien technique & logistique : Manuel Goepfert

Contact : metmap@orbifly.com




SOURCES & CREDITS :

   NOAA